ETAD

Spangdahlem Air Base Airport

Trier, Germany
METAR ETAD 131026Z AUTO 07015G23KT 9999 BKN023 00/M05 A3003 RMK AO2 SLP179 $
Observed Flight Rules
Dec-13 @ 10:26 UTC (25 minutes ago) Marginal Visual Flight Rules
Wind Visibility Clouds
70° at 15 knots
 Gusting to 23 knots
10,000+ meters
  • Broken at 2,300' AGL
Temperatures Readings
Current 0°C / 32°F
Dewpoint -5°C / 23°F
Humidity 69%
Altimeter 30.03" Hg
Pressure 1017.9 hPa
Elevation 365
METAR ETAD 131026Z AUTO 07015G23KT 9999 BKN023 00/M05 A3003 RMK AO2 SLP179 $
Observed Flight Rules
Dec-13 @ 10:26 UTC
(25 minutes ago)
MVFR
Wind Visibility
70° at 15 knots
 Gusting to 23 knots
10,000+ meters
Clouds
  • Broken at 2,300' AGL
Temperature Dewpoint
0°C / 32°F -5°C / 23°F
Humidity Altimeter Pressure
69% 30.03" Hg 1017.9 hPa